Time;durP1;ratioP1;P1;durP2;ratioP2;P2;SDS_P1;SDS_P2;PMS_P1;PMS_P2;Temp;Humidity;BMP_temperature;BMP_pressure;BME280_temperature;BME280_humidity;BME280_pressure;Samples;Min_cycle;Max_cycle;Signal;HPM_P1;HPM_P2
2021/03/30 00:00:42;;;;;;;27.87;18.17;;;10.70;99.90;;;;;;5062380;28;20228;-80
2021/03/30 00:03:10;;;;;;;22.27;18.30;;;10.60;99.90;;;;;;5067132;28;20209;-79
2021/03/30 00:05:36;;;;;;;25.40;19.13;;;10.70;99.90;;;;;;5058915;28;20310;-79
2021/03/30 00:08:03;;;;;;;30.80;20.13;;;10.70;99.90;;;;;;5056936;28;20648;-79
2021/03/30 00:10:35;;;;;;;30.07;21.83;;;10.70;99.90;;;;;;5059028;28;20238;-79
2021/03/30 00:13:02;;;;;;;28.50;22.80;;;10.70;99.90;;;;;;5058397;28;20205;-78
2021/03/30 00:15:28;;;;;;;29.93;23.13;;;10.70;99.90;;;;;;5059559;28;20292;-77
2021/03/30 00:17:56;;;;;;;29.60;23.63;;;10.70;99.90;;;;;;5058002;28;20244;-78
2021/03/30 00:20:23;;;;;;;27.67;21.37;;;10.70;99.90;;;;;;5059964;28;20236;-78
2021/03/30 00:22:49;;;;;;;25.37;21.07;;;10.70;99.90;;;;;;5051333;28;20217;-77
2021/03/30 00:25:15;;;;;;;26.50;20.43;;;10.70;99.90;;;;;;5058501;28;20218;-76
2021/03/30 00:27:42;;;;;;;27.80;20.17;;;10.70;99.90;;;;;;5067330;28;20285;-79
2021/03/30 00:30:11;;;;;;;25.93;19.57;;;10.80;99.90;;;;;;5067134;28;20285;-78
2021/03/30 00:32:38;;;;;;;27.33;19.40;;;10.80;99.90;;;;;;5056210;28;20237;-77
2021/03/30 00:35:07;;;;;;;23.57;18.10;;;10.80;99.90;;;;;;5056808;28;20217;-77
2021/03/30 00:37:34;;;;;;;25.57;18.37;;;10.80;99.90;;;;;;5063880;28;20551;-77
2021/03/30 00:40:01;;;;;;;25.73;17.77;;;10.80;99.90;;;;;;5058514;28;20232;-77
2021/03/30 00:42:27;;;;;;;23.20;16.97;;;10.90;99.90;;;;;;5055566;28;20225;-78
2021/03/30 00:44:53;;;;;;;24.37;18.50;;;10.90;99.90;;;;;;5059973;28;20721;-77
2021/03/30 00:47:21;;;;;;;22.63;17.43;;;10.90;99.90;;;;;;5061779;28;20563;-76
2021/03/30 00:49:50;;;;;;;26.07;17.27;;;10.80;99.90;;;;;;5058881;28;20689;-76
2021/03/30 00:52:19;;;;;;;25.53;17.97;;;10.90;99.90;;;;;;5066083;28;20254;-77
2021/03/30 00:54:49;;;;;;;23.03;17.10;;;10.90;99.90;;;;;;5060380;28;20698;-79
2021/03/30 00:57:17;;;;;;;23.30;17.03;;;10.90;99.90;;;;;;5064765;28;20231;-79
2021/03/30 00:59:45;;;;;;;24.70;17.03;;;10.90;99.90;;;;;;5060935;28;20240;-80
2021/03/30 01:02:11;;;;;;;24.00;16.67;;;10.90;99.90;;;;;;5061237;28;20236;-78
2021/03/30 01:04:38;;;;;;;22.57;15.67;;;10.90;99.90;;;;;;5063904;28;20210;-79
2021/03/30 01:07:07;;;;;;;22.73;16.77;;;10.90;99.90;;;;;;5067515;28;20225;-77
2021/03/30 01:09:56;;;;;;;23.73;17.33;;;10.90;99.90;;;;;;5057292;28;20224;-78
2021/03/30 01:12:52;;;;;;;21.57;16.53;;;10.90;99.90;;;;;;5067901;28;20271;-75
2021/03/30 01:15:35;;;;;;;23.90;17.13;;;11.00;99.90;;;;;;5056190;28;20229;-77
2021/03/30 01:18:10;;;;;;;21.93;15.73;;;10.90;99.90;;;;;;5057137;28;20202;-76
2021/03/30 01:21:12;;;;;;;24.20;16.40;;;10.90;99.90;;;;;;5057155;28;20205;-77
2021/03/30 01:23:59;;;;;;;23.70;16.20;;;10.90;99.90;;;;;;5051974;28;20237;-77
2021/03/30 01:26:54;;;;;;;23.97;15.90;;;10.90;99.90;;;;;;5051877;28;20317;-77
2021/03/30 01:29:39;;;;;;;19.60;15.83;;;10.90;99.90;;;;;;5057198;28;20295;-77
2021/03/30 01:32:09;;;;;;;25.23;15.33;;;10.90;99.90;;;;;;5058821;28;20217;-77
2021/03/30 01:34:38;;;;;;;23.00;15.70;;;10.90;99.90;;;;;;5057097;28;20241;-76
2021/03/30 01:37:05;;;;;;;21.17;14.63;;;10.90;99.90;;;;;;5056192;28;20290;-75
2021/03/30 01:39:34;;;;;;;21.97;16.37;;;10.90;99.90;;;;;;5054754;28;20232;-77
2021/03/30 01:42:03;;;;;;;21.20;15.30;;;10.90;99.90;;;;;;5056254;28;20209;-76
2021/03/30 01:44:32;;;;;;;22.30;15.80;;;10.90;99.90;;;;;;5055446;28;20219;-77
2021/03/30 01:47:01;;;;;;;20.33;14.97;;;10.90;99.90;;;;;;5058372;28;20275;-76
2021/03/30 01:49:30;;;;;;;24.07;15.80;;;10.90;99.90;;;;;;5061394;28;20210;-77
2021/03/30 01:51:58;;;;;;;22.60;15.63;;;10.90;99.90;;;;;;5063108;28;20249;-76
2021/03/30 01:54:26;;;;;;;26.63;15.27;;;10.90;99.90;;;;;;5064161;28;20289;-78
2021/03/30 01:56:56;;;;;;;20.53;16.10;;;10.90;99.90;;;;;;5059808;28;20201;-77
2021/03/30 01:59:26;;;;;;;19.80;15.63;;;10.90;99.90;;;;;;5068635;28;20274;-77
2021/03/30 02:01:54;;;;;;;24.30;16.00;;;10.90;99.90;;;;;;5062033;28;20311;-77
2021/03/30 02:04:23;;;;;;;21.63;16.67;;;10.90;99.90;;;;;;5069541;28;20214;-77
2021/03/30 02:06:51;;;;;;;21.87;16.30;;;10.90;99.90;;;;;;5059639;28;20222;-77
2021/03/30 02:09:24;;;;;;;23.20;15.83;;;10.90;99.90;;;;;;5060647;28;20221;-77
2021/03/30 02:11:53;;;;;;;28.43;17.07;;;10.90;99.90;;;;;;5059145;28;20213;-76
2021/03/30 02:14:19;;;;;;;22.47;16.03;;;10.90;99.90;;;;;;5069563;28;20240;-76
2021/03/30 02:16:51;;;;;;;26.47;17.17;;;10.90;99.90;;;;;;5060108;28;20233;-77
2021/03/30 02:19:27;;;;;;;22.10;16.23;;;10.90;99.90;;;;;;5060853;28;20221;-76
2021/03/30 02:21:58;;;;;;;21.33;15.23;;;10.90;99.90;;;;;;5060542;28;20632;-77
2021/03/30 02:24:28;;;;;;;20.90;16.37;;;10.90;99.90;;;;;;5059678;28;20205;-76
2021/03/30 02:26:57;;;;;;;21.47;15.00;;;10.90;99.90;;;;;;5062505;28;20232;-76
2021/03/30 02:29:27;;;;;;;22.13;15.90;;;10.90;99.90;;;;;;5059838;28;20211;-76
2021/03/30 02:31:55;;;;;;;24.37;16.30;;;10.90;99.90;;;;;;5060165;28;20210;-76
2021/03/30 02:34:28;;;;;;;24.43;15.53;;;10.90;99.90;;;;;;5067929;28;20304;-76
2021/03/30 02:36:56;;;;;;;23.30;16.70;;;10.90;99.90;;;;;;5066771;28;20202;-78
2021/03/30 02:39:24;;;;;;;21.43;16.20;;;10.90;99.90;;;;;;5063453;28;20288;-76
2021/03/30 02:41:52;;;;;;;22.70;15.67;;;10.90;99.90;;;;;;5060197;28;20937;-77
2021/03/30 02:44:21;;;;;;;23.20;16.13;;;10.90;99.90;;;;;;5058931;28;20224;-75
2021/03/30 02:46:49;;;;;;;22.83;16.00;;;10.90;99.90;;;;;;5071287;28;20229;-76
2021/03/30 02:49:18;;;;;;;22.40;16.07;;;10.90;99.90;;;;;;5059999;28;20247;-77
2021/03/30 02:51:47;;;;;;;24.47;16.83;;;10.90;99.90;;;;;;5060376;28;20210;-76
2021/03/30 02:54:15;;;;;;;24.10;16.80;;;10.90;99.90;;;;;;5058568;28;20272;-76
2021/03/30 02:56:42;;;;;;;23.23;17.10;;;11.00;99.90;;;;;;5058650;28;20209;-77
2021/03/30 02:59:11;;;;;;;24.53;17.00;;;11.00;99.90;;;;;;5058558;28;20609;-76
2021/03/30 03:01:38;;;;;;;23.57;17.63;;;11.00;99.90;;;;;;5059701;28;20206;-76
2021/03/30 03:04:05;;;;;;;22.33;16.13;;;11.00;99.90;;;;;;5058829;28;20246;-77
2021/03/30 03:06:32;;;;;;;22.43;16.70;;;11.00;99.90;;;;;;5059559;28;20248;-77
2021/03/30 03:09:00;;;;;;;21.03;15.80;;;11.00;99.90;;;;;;5056040;28;20217;-76
2021/03/30 03:11:28;;;;;;;21.33;16.97;;;11.00;99.90;;;;;;5058068;28;20233;-76
2021/03/30 03:13:57;;;;;;;23.03;16.33;;;11.00;99.90;;;;;;5056621;28;20317;-76
2021/03/30 03:16:25;;;;;;;24.03;16.23;;;11.10;99.90;;;;;;5059095;28;20210;-77
2021/03/30 03:18:53;;;;;;;20.80;16.13;;;11.10;99.90;;;;;;5054852;28;20223;-76
2021/03/30 03:21:21;;;;;;;26.37;17.27;;;11.00;99.90;;;;;;5061492;28;20684;-76
2021/03/30 03:23:48;;;;;;;22.70;15.67;;;11.10;99.90;;;;;;5056151;28;20237;-77
2021/03/30 03:26:15;;;;;;;22.33;16.87;;;10.90;99.90;;;;;;5062983;28;20230;-77
2021/03/30 03:28:43;;;;;;;24.00;16.37;;;11.00;99.90;;;;;;5071593;28;20639;-77
2021/03/30 03:31:10;;;;;;;22.03;16.60;;;11.00;99.90;;;;;;5060460;28;20281;-77
2021/03/30 03:33:36;;;;;;;24.03;16.23;;;11.00;99.90;;;;;;5061917;28;20213;-77
2021/03/30 03:36:08;;;;;;;25.00;17.93;;;11.00;99.90;;;;;;5074061;28;20282;-80
2021/03/30 03:38:36;;;;;;;29.60;18.93;;;11.00;99.90;;;;;;5068249;28;20240;-77
2021/03/30 03:41:03;;;;;;;28.40;19.47;;;11.10;99.90;;;;;;5065590;28;20569;-79
2021/03/30 03:43:31;;;;;;;28.13;19.00;;;11.00;99.90;;;;;;5061345;28;20738;-79
2021/03/30 03:45:57;;;;;;;28.80;18.97;;;11.00;99.90;;;;;;5061613;28;20241;-79
2021/03/30 03:48:24;;;;;;;27.50;17.93;;;11.00;99.90;;;;;;5067715;28;20213;-79
2021/03/30 03:50:52;;;;;;;26.57;17.27;;;11.00;99.90;;;;;;5062390;28;20217;-78
2021/03/30 03:53:20;;;;;;;25.50;18.60;;;11.00;99.90;;;;;;5062966;28;20243;-79
2021/03/30 03:55:50;;;;;;;28.43;18.17;;;11.00;99.90;;;;;;5062108;28;20209;-78
2021/03/30 03:58:20;;;;;;;28.20;17.93;;;11.00;99.90;;;;;;5068556;28;20224;-79
2021/03/30 04:00:48;;;;;;;29.03;18.87;;;10.90;99.90;;;;;;5062951;28;20240;-79
2021/03/30 04:03:21;;;;;;;29.40;18.83;;;11.00;99.90;;;;;;5073391;28;20981;-79
2021/03/30 04:05:55;;;;;;;23.87;17.23;;;11.00;99.90;;;;;;5061032;28;20268;-79
2021/03/30 04:08:24;;;;;;;24.53;16.87;;;11.00;99.90;;;;;;5060005;28;20214;-79
2021/03/30 04:10:53;;;;;;;25.20;17.90;;;11.00;99.90;;;;;;5040421;28;20240;-79
2021/03/30 04:13:21;;;;;;;25.80;16.70;;;10.90;99.90;;;;;;5061991;28;20210;-82
2021/03/30 04:15:49;;;;;;;24.83;17.47;;;11.00;99.90;;;;;;5063035;28;20202;-80
2021/03/30 04:18:16;;;;;;;23.03;16.17;;;10.90;99.90;;;;;;5062550;28;20214;-79
2021/03/30 04:20:45;;;;;;;26.67;15.87;;;10.90;99.90;;;;;;5064601;28;20717;-80
2021/03/30 04:23:13;;;;;;;23.87;16.60;;;10.90;99.90;;;;;;5064000;28;20203;-82
2021/03/30 04:25:39;;;;;;;24.97;16.40;;;10.80;99.90;;;;;;5065841;28;20228;-81
2021/03/30 04:28:06;;;;;;;24.60;17.93;;;10.80;99.90;;;;;;5074402;28;20293;-82
2021/03/30 04:30:32;;;;;;;30.70;18.07;;;10.80;99.90;;;;;;5061534;28;20282;-78
2021/03/30 04:33:01;;;;;;;26.10;17.93;;;10.80;99.90;;;;;;5058131;28;20206;-76
2021/03/30 04:35:28;;;;;;;25.37;17.30;;;10.80;99.90;;;;;;5061716;28;20255;-77
2021/03/30 04:37:54;;;;;;;26.20;18.33;;;10.80;99.90;;;;;;5057306;28;20301;-77
2021/03/30 04:40:20;;;;;;;24.63;18.50;;;10.80;99.90;;;;;;5068462;28;20308;-77
2021/03/30 04:42:47;;;;;;;28.97;17.27;;;10.80;99.90;;;;;;5059266;28;20300;-79
2021/03/30 04:45:14;;;;;;;27.07;17.50;;;10.80;99.90;;;;;;5065324;28;20212;-78
2021/03/30 04:47:40;;;;;;;22.90;17.37;;;10.80;99.90;;;;;;5062787;28;20289;-78
2021/03/30 04:50:09;;;;;;;28.50;18.90;;;10.80;99.90;;;;;;5060044;28;20305;-77
2021/03/30 04:52:35;;;;;;;27.00;17.57;;;10.80;99.90;;;;;;5057381;28;20305;-77
2021/03/30 04:55:02;;;;;;;28.77;18.17;;;10.80;99.90;;;;;;5057060;28;20210;-76
2021/03/30 04:57:28;;;;;;;28.33;18.93;;;10.80;99.90;;;;;;5070296;28;20293;-77
2021/03/30 04:59:55;;;;;;;25.13;18.93;;;10.80;99.90;;;;;;5052488;28;20325;-77
2021/03/30 05:02:23;;;;;;;22.23;17.20;;;10.80;99.90;;;;;;5057600;28;20238;-77
2021/03/30 05:04:49;;;;;;;25.63;18.53;;;10.80;99.90;;;;;;5062033;28;20241;-77
2021/03/30 05:07:18;;;;;;;28.30;18.37;;;10.80;99.90;;;;;;5057345;28;20218;-76
2021/03/30 05:09:44;;;;;;;28.60;18.33;;;10.80;99.90;;;;;;5057137;28;20264;-76
2021/03/30 05:12:11;;;;;;;23.73;18.90;;;10.80;99.90;;;;;;5058050;28;20213;-77
2021/03/30 05:14:37;;;;;;;25.30;18.33;;;10.80;99.90;;;;;;5055415;28;20266;-78
2021/03/30 05:17:04;;;;;;;23.47;18.33;;;10.80;99.90;;;;;;5055143;28;20211;-77
2021/03/30 05:19:31;;;;;;;27.23;17.90;;;10.80;99.90;;;;;;5060685;28;20651;-78
2021/03/30 05:21:57;;;;;;;28.17;19.37;;;10.80;99.90;;;;;;5058182;28;20531;-78
2021/03/30 05:24:26;;;;;;;25.70;19.27;;;10.80;99.90;;;;;;5055785;28;20293;-77
2021/03/30 05:26:53;;;;;;;26.60;18.67;;;10.90;99.90;;;;;;5065995;28;20279;-78
2021/03/30 05:29:19;;;;;;;28.20;19.83;;;10.90;99.90;;;;;;5057373;28;20245;-78
2021/03/30 05:31:46;;;;;;;28.03;19.17;;;10.80;99.90;;;;;;5055940;28;20226;-78
2021/03/30 05:34:12;;;;;;;25.10;18.33;;;10.90;99.90;;;;;;5060032;28;20240;-78
2021/03/30 05:36:38;;;;;;;24.37;19.43;;;10.90;99.90;;;;;;5066892;28;20680;-78
2021/03/30 05:39:06;;;;;;;25.67;18.67;;;10.90;99.90;;;;;;5057403;28;20288;-80
2021/03/30 05:41:34;;;;;;;26.80;20.10;;;11.00;99.90;;;;;;5068374;28;20209;-80
2021/03/30 05:44:01;;;;;;;29.80;21.03;;;11.00;99.90;;;;;;5060283;28;20274;-79
2021/03/30 05:46:28;;;;;;;30.47;19.77;;;11.10;99.90;;;;;;5062992;28;20237;-79
2021/03/30 05:48:55;;;;;;;29.50;19.33;;;11.10;99.90;;;;;;5060868;28;20233;-79
2021/03/30 05:51:23;;;;;;;31.77;21.67;;;11.20;99.90;;;;;;5059858;28;20210;-79
2021/03/30 05:53:55;;;;;;;31.47;20.90;;;11.20;99.90;;;;;;5056742;28;20197;-79
2021/03/30 05:56:22;;;;;;;29.07;20.53;;;11.20;99.90;;;;;;5059267;28;20641;-79
2021/03/30 05:58:51;;;;;;;27.67;20.60;;;11.20;99.90;;;;;;5058074;28;20244;-78
2021/03/30 06:01:21;;;;;;;28.67;20.57;;;11.30;99.90;;;;;;5059068;28;20225;-78
2021/03/30 06:03:50;;;;;;;31.90;20.67;;;11.30;99.90;;;;;;5057226;28;20221;-77
2021/03/30 06:06:17;;;;;;;26.93;19.27;;;11.30;99.90;;;;;;5051549;28;20350;-76
2021/03/30 06:08:44;;;;;;;27.67;19.17;;;11.40;99.90;;;;;;5055455;28;20623;-72
2021/03/30 06:11:12;;;;;;;29.20;20.30;;;11.40;99.90;;;;;;5050244;28;20260;-71
2021/03/30 06:13:51;;;;;;;30.50;20.53;;;11.40;99.90;;;;;;5043991;28;20735;-72
2021/03/30 06:16:33;;;;;;;28.50;19.30;;;11.40;99.90;;;;;;5042305;28;20206;-71
2021/03/30 06:19:09;;;;;;;23.87;18.23;;;11.40;99.90;;;;;;5043401;28;20210;-72
2021/03/30 06:21:38;;;;;;;28.27;19.23;;;11.40;99.90;;;;;;5044972;28;20206;-72
2021/03/30 06:24:27;;;;;;;31.53;20.53;;;11.40;99.90;;;;;;5044871;28;20202;-71
2021/03/30 06:26:55;;;;;;;28.97;18.93;;;11.40;99.90;;;;;;5044397;28;20317;-74
2021/03/30 06:29:27;;;;;;;26.37;19.03;;;11.50;99.90;;;;;;5051579;28;20293;-73
2021/03/30 06:31:55;;;;;;;28.73;19.70;;;11.50;99.90;;;;;;5048772;28;20230;-72
2021/03/30 06:34:26;;;;;;;31.33;19.83;;;11.50;99.90;;;;;;5050074;28;20297;-72
2021/03/30 06:36:53;;;;;;;24.63;17.93;;;11.60;99.90;;;;;;5052275;28;20577;-74
2021/03/30 06:39:33;;;;;;;33.40;20.03;;;11.60;99.90;;;;;;5051015;28;20610;-75
2021/03/30 06:42:01;;;;;;;26.97;19.17;;;11.70;99.90;;;;;;5053910;28;20214;-72
2021/03/30 06:44:34;;;;;;;28.37;18.50;;;11.70;99.90;;;;;;5053489;28;20211;-71
2021/03/30 06:47:07;;;;;;;24.60;18.43;;;11.80;99.90;;;;;;5057064;28;20217;-73
2021/03/30 06:49:36;;;;;;;24.80;18.47;;;11.80;99.90;;;;;;5056173;28;20593;-72
2021/03/30 06:52:13;;;;;;;27.23;17.50;;;11.90;99.90;;;;;;5051293;28;20214;-73
2021/03/30 06:54:52;;;;;;;25.27;18.23;;;11.90;99.90;;;;;;5055442;28;20257;-77
2021/03/30 06:57:35;;;;;;;30.60;18.83;;;12.00;99.90;;;;;;5049798;28;20252;-70
2021/03/30 07:00:06;;;;;;;23.77;16.93;;;12.00;99.90;;;;;;5056663;28;20681;-74
2021/03/30 07:02:33;;;;;;;24.10;17.37;;;12.10;99.90;;;;;;5054757;28;20284;-73
2021/03/30 07:05:00;;;;;;;22.23;17.07;;;12.20;99.90;;;;;;5060560;28;20716;-75
2021/03/30 07:07:30;;;;;;;23.43;16.30;;;12.30;99.90;;;;;;5056872;28;20245;-74
2021/03/30 07:09:57;;;;;;;23.37;17.13;;;12.30;99.90;;;;;;5056571;28;20257;-74
2021/03/30 07:12:24;;;;;;;26.03;16.80;;;12.40;99.90;;;;;;5055930;28;20242;-73
2021/03/30 07:14:51;;;;;;;25.70;18.23;;;12.40;99.90;;;;;;5055658;28;20256;-75
2021/03/30 07:17:27;;;;;;;23.47;17.13;;;12.50;99.90;;;;;;5055779;28;20301;-72
2021/03/30 07:19:59;;;;;;;23.87;16.07;;;12.60;99.90;;;;;;5052108;28;20204;-72
2021/03/30 07:22:28;;;;;;;24.17;17.07;;;12.60;99.90;;;;;;5052829;28;20204;-76
2021/03/30 07:25:00;;;;;;;23.40;16.30;;;12.70;99.90;;;;;;5055532;28;20249;-74
2021/03/30 07:27:30;;;;;;;27.87;18.63;;;12.70;99.90;;;;;;5053849;28;20226;-71
2021/03/30 07:29:58;;;;;;;28.27;18.13;;;12.70;99.90;;;;;;5053510;28;20419;-70
2021/03/30 07:32:37;;;;;;;23.70;17.37;;;12.80;99.90;;;;;;5055553;28;20232;-71
2021/03/30 07:35:09;;;;;;;23.83;18.37;;;12.80;99.90;;;;;;5055107;28;20209;-70
2021/03/30 07:37:40;;;;;;;22.70;17.47;;;12.80;99.90;;;;;;5055728;28;20198;-73
2021/03/30 07:40:09;;;;;;;28.70;20.77;;;12.80;99.90;;;;;;5053468;28;20298;-71
2021/03/30 07:42:39;;;;;;;26.57;19.00;;;12.80;99.90;;;;;;5050630;28;20206;-71
2021/03/30 07:45:07;;;;;;;24.27;18.53;;;12.90;99.90;;;;;;5054483;28;20261;-76
2021/03/30 07:47:35;;;;;;;26.43;19.20;;;12.90;99.90;;;;;;5050854;28;20276;-76
2021/03/30 07:50:02;;;;;;;26.57;17.97;;;12.90;99.90;;;;;;5055630;28;20210;-71
2021/03/30 07:52:29;;;;;;;28.43;18.77;;;12.90;99.90;;;;;;5053599;28;20214;-73
2021/03/30 07:55:17;;;;;;;22.93;17.97;;;12.90;99.90;;;;;;5053727;28;20335;-75
2021/03/30 07:57:59;;;;;;;26.43;18.73;;;13.00;99.90;;;;;;5051906;28;20206;-76
2021/03/30 08:00:45;;;;;;;25.30;19.17;;;13.00;99.90;;;;;;5044576;28;20814;-75
2021/03/30 08:03:16;;;;;;;26.07;19.33;;;13.10;99.90;;;;;;5046449;28;20214;-72
2021/03/30 08:05:42;;;;;;;28.73;20.93;;;13.10;99.90;;;;;;5044066;28;20345;-70
2021/03/30 08:08:20;;;;;;;32.43;21.20;;;13.10;99.90;;;;;;5044048;28;20249;-71
2021/03/30 08:10:49;;;;;;;34.20;22.43;;;13.10;99.90;;;;;;5053533;28;20237;-73
2021/03/30 08:13:27;;;;;;;31.93;22.03;;;13.10;99.90;;;;;;5051853;28;20636;-74
2021/03/30 08:15:54;;;;;;;28.60;21.20;;;13.10;99.90;;;;;;5048646;28;20305;-72
2021/03/30 08:18:24;;;;;;;29.93;20.70;;;13.10;99.90;;;;;;5052357;28;20574;-72
2021/03/30 08:21:14;;;;;;;31.07;22.30;;;13.10;99.90;;;;;;5049472;28;20198;-74
2021/03/30 08:24:11;;;;;;;30.57;22.13;;;13.00;99.90;;;;;;5048462;28;20202;-69
2021/03/30 08:26:40;;;;;;;25.87;21.00;;;13.10;99.90;;;;;;4973584;28;20611;-74
2021/03/30 08:29:09;;;;;;;26.83;20.43;;;13.10;99.90;;;;;;5033535;28;20660;-75
2021/03/30 08:31:37;;;;;;;27.43;19.93;;;13.20;99.90;;;;;;5047794;28;20642;-73
2021/03/30 08:34:07;;;;;;;24.43;19.70;;;13.20;99.90;;;;;;5049116;28;20221;-73
2021/03/30 08:36:36;;;;;;;27.93;21.57;;;13.30;99.90;;;;;;5054090;28;20777;-73
2021/03/30 08:39:06;;;;;;;29.73;21.10;;;13.30;99.90;;;;;;5050479;28;20304;-75
2021/03/30 08:41:56;;;;;;;25.97;20.37;;;13.40;99.90;;;;;;5052372;28;20198;-69
2021/03/30 08:44:36;;;;;;;23.97;20.40;;;13.50;99.90;;;;;;5048866;28;20205;-70
2021/03/30 08:47:03;;;;;;;27.20;20.43;;;13.50;99.90;;;;;;5047593;28;20304;-69
2021/03/30 08:49:36;;;;;;;25.70;21.67;;;13.50;99.90;;;;;;5047651;28;20330;-68
2021/03/30 08:52:05;;;;;;;26.87;20.97;;;13.60;99.90;;;;;;5049733;28;20201;-69
2021/03/30 08:54:33;;;;;;;27.20;20.60;;;13.60;99.90;;;;;;5049226;28;20240;-71
2021/03/30 08:57:01;;;;;;;25.37;20.40;;;13.70;99.90;;;;;;5049876;28;20260;-70
2021/03/30 08:59:29;;;;;;;25.43;20.63;;;13.70;99.90;;;;;;5050561;28;20248;-70
2021/03/30 09:01:57;;;;;;;25.30;19.33;;;13.80;99.90;;;;;;5050669;28;20655;-74
2021/03/30 09:04:26;;;;;;;27.00;19.63;;;13.90;99.90;;;;;;5049867;28;20206;-70
2021/03/30 09:06:56;;;;;;;27.90;19.23;;;14.00;99.90;;;;;;5048298;28;20775;-69
2021/03/30 09:09:24;;;;;;;23.73;19.37;;;14.00;99.90;;;;;;5049064;28;20202;-70
2021/03/30 09:11:51;;;;;;;28.43;20.80;;;14.00;99.90;;;;;;5053552;28;20679;-69
2021/03/30 09:14:19;;;;;;;27.30;19.40;;;14.10;99.90;;;;;;5051877;28;20253;-69
2021/03/30 09:16:49;;;;;;;22.53;18.47;;;14.20;99.90;;;;;;5049715;28;20248;-69
2021/03/30 09:19:30;;;;;;;22.57;17.17;;;14.20;99.90;;;;;;5051462;28;20209;-69
2021/03/30 09:22:00;;;;;;;25.90;17.30;;;14.20;99.90;;;;;;5046159;28;20718;-70
2021/03/30 09:24:35;;;;;;;22.13;16.67;;;14.20;99.90;;;;;;5048502;28;20202;-73
2021/03/30 09:27:02;;;;;;;20.30;17.90;;;14.10;99.90;;;;;;5052489;28;20264;-70
2021/03/30 09:29:30;;;;;;;24.80;18.00;;;14.10;99.90;;;;;;5049965;28;20300;-71
2021/03/30 09:31:57;;;;;;;27.73;18.37;;;14.10;99.90;;;;;;5051997;28;20343;-73
2021/03/30 09:34:25;;;;;;;23.27;17.50;;;14.10;99.90;;;;;;5049622;28;20232;-73
2021/03/30 09:36:52;;;;;;;20.53;16.43;;;14.10;99.90;;;;;;5052296;28;20217;-74
2021/03/30 09:39:21;;;;;;;23.07;17.43;;;14.10;99.90;;;;;;5049195;28;20213;-73
2021/03/30 09:41:49;;;;;;;22.33;17.67;;;14.10;99.90;;;;;;5065267;28;20681;-71
2021/03/30 09:44:17;;;;;;;23.63;17.57;;;14.10;99.90;;;;;;5053483;28;20232;-71
2021/03/30 09:46:44;;;;;;;20.37;16.60;;;14.10;99.90;;;;;;5050224;28;20694;-72
2021/03/30 09:49:11;;;;;;;22.63;15.90;;;14.10;99.90;;;;;;5048242;28;20237;-72
2021/03/30 09:51:40;;;;;;;19.00;14.03;;;14.20;99.90;;;;;;5055098;28;20206;-72
2021/03/30 09:54:21;;;;;;;19.70;14.53;;;14.20;99.90;;;;;;5054668;28;20206;-71
2021/03/30 09:56:48;;;;;;;17.10;14.93;;;14.10;99.90;;;;;;5058362;28;20301;-71
2021/03/30 09:59:18;;;;;;;19.03;13.90;;;14.10;99.90;;;;;;5060470;28;20339;-73
2021/03/30 10:01:45;;;;;;;16.70;13.13;;;14.00;99.90;;;;;;5059782;28;20194;-72
2021/03/30 10:04:12;;;;;;;17.80;14.07;;;14.00;99.90;;;;;;5060996;28;20213;-72
2021/03/30 10:06:38;;;;;;;18.73;14.70;;;14.00;99.90;;;;;;5054823;28;20206;-71
2021/03/30 10:09:06;;;;;;;17.43;15.03;;;14.00;99.90;;;;;;5064605;28;20210;-72
2021/03/30 10:11:34;;;;;;;18.77;15.23;;;14.00;99.90;;;;;;5061572;28;21987;-71
2021/03/30 10:14:21;;;;;;;18.73;14.87;;;14.10;99.90;;;;;;5065148;28;20233;-71
2021/03/30 10:16:50;;;;;;;18.17;14.37;;;14.00;99.90;;;;;;5061104;28;20753;-72
2021/03/30 10:19:17;;;;;;;18.83;14.63;;;14.00;99.90;;;;;;5061857;28;20718;-72
2021/03/30 10:21:45;;;;;;;19.73;15.63;;;13.90;99.90;;;;;;5061838;28;20202;-72
2021/03/30 10:24:15;;;;;;;19.43;14.97;;;13.90;99.90;;;;;;5060982;28;20198;-74
2021/03/30 10:26:59;;;;;;;17.17;14.43;;;13.80;99.90;;;;;;5062171;28;20496;-72
2021/03/30 10:29:32;;;;;;;16.97;13.67;;;13.90;99.90;;;;;;5058157;28;20202;-73
2021/03/30 10:32:01;;;;;;;17.43;13.80;;;14.10;99.90;;;;;;5060001;28;20210;-74
2021/03/30 10:34:30;;;;;;;16.47;12.67;;;14.30;99.90;;;;;;5059101;28;20971;-73
2021/03/30 10:37:00;;;;;;;14.73;12.83;;;14.50;99.90;;;;;;5058796;28;20209;-73
2021/03/30 10:39:31;;;;;;;14.53;11.73;;;14.50;99.90;;;;;;5055951;28;20268;-72
2021/03/30 10:42:04;;;;;;;15.80;12.43;;;14.50;99.90;;;;;;5060229;28;20216;-74
2021/03/30 10:44:35;;;;;;;18.10;13.70;;;14.40;99.90;;;;;;5058667;28;20237;-73
2021/03/30 10:47:17;;;;;;;15.83;11.90;;;14.30;99.90;;;;;;5049325;28;20341;-75
2021/03/30 10:49:45;;;;;;;14.37;11.10;;;14.20;99.90;;;;;;5051153;28;20217;-74
2021/03/30 10:52:19;;;;;;;12.27;10.43;;;14.20;99.90;;;;;;5054614;28;20202;-73
2021/03/30 10:54:47;;;;;;;10.67;9.23;;;14.10;99.90;;;;;;5058838;28;20739;-73
2021/03/30 10:57:15;;;;;;;14.03;9.17;;;14.00;99.90;;;;;;5056906;28;20320;-73
2021/03/30 10:59:43;;;;;;;12.20;8.90;;;14.00;99.90;;;;;;5063340;28;20206;-73
2021/03/30 11:02:10;;;;;;;11.50;8.73;;;14.00;99.90;;;;;;5051969;28;20259;-74
2021/03/30 11:04:37;;;;;;;13.03;8.27;;;14.00;99.90;;;;;;5057596;28;20198;-73
2021/03/30 11:07:04;;;;;;;9.60;7.53;;;13.90;99.90;;;;;;5048140;28;20225;-73
2021/03/30 11:09:31;;;;;;;12.77;7.87;;;14.00;99.90;;;;;;5049078;28;20612;-74
2021/03/30 11:11:58;;;;;;;12.23;6.73;;;14.00;99.90;;;;;;5056737;28;20209;-73
2021/03/30 11:14:27;;;;;;;12.37;6.90;;;14.00;99.90;;;;;;5053017;28;20638;-73
2021/03/30 11:16:54;;;;;;;9.80;6.40;;;14.00;99.90;;;;;;5053738;28;20202;-74
2021/03/30 11:19:24;;;;;;;9.77;6.37;;;14.00;99.90;;;;;;5047141;28;20214;-72
2021/03/30 11:21:50;;;;;;;7.00;5.23;;;14.00;99.90;;;;;;5057453;28;20232;-75
2021/03/30 11:24:21;;;;;;;8.07;5.10;;;14.00;99.90;;;;;;5056947;28;20265;-72
2021/03/30 11:26:48;;;;;;;10.07;5.93;;;14.00;99.90;;;;;;5052207;28;20206;-70
2021/03/30 11:29:19;;;;;;;5.53;4.70;;;14.00;99.90;;;;;;5048502;28;20316;-71
2021/03/30 11:31:59;;;;;;;9.43;5.30;;;14.10;99.90;;;;;;5054706;28;20259;-71
2021/03/30 11:34:27;;;;;;;8.37;6.77;;;14.10;99.90;;;;;;5052826;28;20669;-74
2021/03/30 11:36:55;;;;;;;9.33;5.40;;;14.10;99.90;;;;;;5052075;28;20209;-74
2021/03/30 11:39:22;;;;;;;6.67;4.63;;;14.00;99.90;;;;;;5047080;28;20210;-75
2021/03/30 11:41:49;;;;;;;5.17;4.50;;;14.00;99.90;;;;;;5051127;28;20201;-73
2021/03/30 11:44:18;;;;;;;7.53;4.40;;;14.00;99.90;;;;;;5056667;28;20316;-73
2021/03/30 11:46:44;;;;;;;6.87;4.87;;;14.00;99.90;;;;;;5056460;28;20202;-73
2021/03/30 11:49:12;;;;;;;8.80;5.93;;;14.00;99.90;;;;;;5053501;28;20296;-75
2021/03/30 11:51:38;;;;;;;9.13;7.30;;;13.90;99.90;;;;;;5054192;28;20291;-72
2021/03/30 11:54:05;;;;;;;9.87;8.40;;;14.00;99.90;;;;;;5055916;28;20297;-74
2021/03/30 11:56:32;;;;;;;11.70;7.77;;;14.00;99.90;;;;;;5058270;28;20285;-72
2021/03/30 11:58:58;;;;;;;12.13;8.80;;;14.00;99.90;;;;;;5053919;28;20267;-73
2021/03/30 12:01:26;;;;;;;11.30;9.63;;;14.10;99.90;;;;;;5056202;28;20209;-73
2021/03/30 12:03:52;;;;;;;14.23;10.57;;;14.20;99.90;;;;;;5056245;28;20293;-71
2021/03/30 12:06:19;;;;;;;13.43;10.73;;;14.30;99.90;;;;;;5051154;28;20304;-77
2021/03/30 12:08:46;;;;;;;12.50;10.50;;;14.40;99.90;;;;;;5053867;28;20308;-70
2021/03/30 12:11:12;;;;;;;13.10;10.70;;;14.50;99.90;;;;;;5054966;28;20238;-73
2021/03/30 12:13:40;;;;;;;16.13;12.20;;;14.60;99.90;;;;;;5048331;28;20226;-72
2021/03/30 12:16:06;;;;;;;15.13;12.27;;;14.70;99.90;;;;;;5055519;28;20214;-71
2021/03/30 12:18:33;;;;;;;13.03;11.57;;;14.70;99.90;;;;;;5053603;28;20202;-74
2021/03/30 12:20:59;;;;;;;14.57;11.93;;;14.70;99.90;;;;;;5051607;28;20552;-71
2021/03/30 12:23:27;;;;;;;17.23;12.77;;;14.60;99.90;;;;;;5052671;28;20205;-68
2021/03/30 12:25:54;;;;;;;16.07;13.33;;;14.60;99.90;;;;;;5051494;28;20227;-75
2021/03/30 12:28:20;;;;;;;17.20;13.37;;;14.50;99.90;;;;;;5058691;28;20220;-71
2021/03/30 12:30:47;;;;;;;20.37;16.03;;;14.40;99.90;;;;;;5055448;28;20690;-72
2021/03/30 12:33:14;;;;;;;21.53;16.13;;;14.40;99.90;;;;;;5050132;28;20208;-73
2021/03/30 12:35:41;;;;;;;18.67;15.40;;;14.30;99.90;;;;;;5047704;28;20241;-73
2021/03/30 12:38:07;;;;;;;18.30;16.13;;;14.20;99.90;;;;;;5053856;28;20727;-72
2021/03/30 12:40:37;;;;;;;22.37;16.60;;;14.20;99.90;;;;;;5048799;28;20700;-74